Time;durP1;ratioP1;P1;durP2;ratioP2;P2;SDS_P1;SDS_P2;PMS_P1;PMS_P2;Temp;Humidity;BMP_temperature;BMP_pressure;BME280_temperature;BME280_humidity;BME280_pressure;Samples;Min_cycle;Max_cycle;Signal;HPM_P1;HPM_P2
2023/02/18 00:02:04;;;;;;;;;;;;;;;14.60;44.96;100778.66;4933598;28;116748;-67
2023/02/18 00:04:30;;;;;;;;;;;;;;;14.59;44.78;100787.88;4916624;28;120630;-66
2023/02/18 00:06:56;;;;;;;;;;;;;;;14.56;44.98;100783.03;4915732;28;112396;-67
2023/02/18 00:09:22;;;;;;;;;;;;;;;14.57;44.86;100792.78;4919103;28;127444;-66
2023/02/18 00:11:48;;;;;;;;;;;;;;;14.55;45.22;100787.66;4921281;28;99148;-67
2023/02/18 00:14:14;;;;;;;;;;;;;;;14.53;44.81;100787.13;4902341;28;100091;-67
2023/02/18 00:16:40;;;;;;;;;;;;;;;14.53;44.88;100797.16;4920506;28;98243;-67
2023/02/18 00:19:08;;;;;;;;;;;;;;;14.51;44.79;100794.75;4901555;28;97892;-67
2023/02/18 00:21:34;;;;;;;;;;;;;;;14.51;45.02;100799.38;4902950;28;99683;-67
2023/02/18 00:24:00;;;;;;;;;;;;;;;14.49;44.81;100810.47;4919831;28;116823;-67
2023/02/18 00:26:26;;;;;;;;;;;;;;;14.47;44.72;100818.06;4919059;28;126754;-67
2023/02/18 00:28:53;;;;;;;;;;;;;;;14.45;45.08;100814.81;4935463;28;98262;-69
2023/02/18 00:31:23;;;;;;;;;;;;;;;14.44;45.21;100807.78;4919644;28;98039;-67
2023/02/18 00:33:49;;;;;;;;;;;;;;;14.43;44.67;100798.03;4919035;28;112900;-67
2023/02/18 00:36:17;;;;;;;;;;;;;;;14.42;44.97;100802.66;4903675;28;129343;-67
2023/02/18 00:38:48;;;;;;;;;;;;;;;14.40;44.78;100802.13;4922036;28;98384;-67
2023/02/18 00:41:14;;;;;;;;;;;;;;;14.39;44.82;100808.66;4917365;28;98122;-66
2023/02/18 00:43:40;;;;;;;;;;;;;;;14.38;45.07;100807.03;4918649;28;99861;-67
2023/02/18 00:46:06;;;;;;;;;;;;;;;14.37;45.12;100807.31;4919146;28;114402;-66
2023/02/18 00:48:33;;;;;;;;;;;;;;;14.36;44.89;100830.09;4919833;28;99647;-66
2023/02/18 00:50:59;;;;;;;;;;;;;;;14.34;44.94;100829.56;4919366;28;98424;-67
2023/02/18 00:53:26;;;;;;;;;;;;;;;14.32;45.01;100820.91;4904539;28;98465;-67
2023/02/18 00:55:52;;;;;;;;;;;;;;;14.30;44.73;100828.50;4921694;28;123158;-67
2023/02/18 00:58:18;;;;;;;;;;;;;;;14.25;44.73;100824.75;4921934;28;127985;-67
2023/02/18 01:00:44;;;;;;;;;;;;;;;14.23;44.76;100839.69;4918764;28;122176;-66
2023/02/18 01:03:10;;;;;;;;;;;;;;;14.18;45.02;100829.66;4916708;28;98431;-67
2023/02/18 01:05:37;;;;;;;;;;;;;;;14.16;44.79;100829.16;4919683;28;98338;-67
2023/02/18 01:08:03;;;;;;;;;;;;;;;14.13;44.96;100829.72;4903965;28;102934;-66
2023/02/18 01:10:29;;;;;;;;;;;;;;;14.12;45.07;100838.16;4919353;28;98067;-66
2023/02/18 01:12:55;;;;;;;;;;;;;;;14.08;44.64;100826.25;4884943;28;123962;-67
2023/02/18 01:15:21;;;;;;;;;;;;;;;14.06;45.17;100828.41;4916980;28;124518;-67
2023/02/18 01:17:47;;;;;;;;;;;;;;;14.05;44.90;100829.50;4898347;28;123799;-67
2023/02/18 01:20:13;;;;;;;;;;;;;;;14.02;45.09;100824.66;4933604;28;123007;-67
2023/02/18 01:22:39;;;;;;;;;;;;;;;14.00;45.21;100822.22;4901048;28;114173;-67
2023/02/18 01:25:05;;;;;;;;;;;;;;;13.99;44.91;100826.03;4898472;28;121530;-66
2023/02/18 01:27:31;;;;;;;;;;;;;;;13.96;44.96;100823.88;4918093;28;108585;-67
2023/02/18 01:29:57;;;;;;;;;;;;;;;13.94;45.11;100817.91;4917018;28;120936;-67
2023/02/18 01:32:23;;;;;;;;;;;;;;;13.92;45.12;100817.41;4895696;28;127934;-67
2023/02/18 01:34:49;;;;;;;;;;;;;;;13.91;45.13;100813.91;4915973;28;115340;-67
2023/02/18 01:37:14;;;;;;;;;;;;;;;13.89;45.00;100815.25;4901066;28;127948;-67
2023/02/18 01:39:40;;;;;;;;;;;;;;;13.88;44.77;100838.84;4932118;28;122719;-67
2023/02/18 01:42:11;;;;;;;;;;;;;;;13.87;45.11;100822.84;4928554;28;123084;-68
2023/02/18 01:44:37;;;;;;;;;;;;;;;13.85;44.77;100825.84;4917613;28;108636;-68
2023/02/18 01:47:03;;;;;;;;;;;;;;;13.83;45.09;100829.91;4910034;28;128185;-68
2023/02/18 01:49:34;;;;;;;;;;;;;;;13.83;44.80;100832.63;4919158;28;98271;-68
2023/02/18 01:52:03;;;;;;;;;;;;;;;13.81;45.08;100834.81;4913035;28;105641;-67
2023/02/18 01:54:31;;;;;;;;;;;;;;;13.79;44.82;100837.78;4933665;28;98042;-68
2023/02/18 01:56:58;;;;;;;;;;;;;;;13.78;45.09;100827.25;4946215;28;103321;-68
2023/02/18 01:59:30;;;;;;;;;;;;;;;13.77;44.94;100828.34;4917006;28;98642;-67
2023/02/18 02:01:56;;;;;;;;;;;;;;;13.75;45.18;100820.47;4900653;28;122430;-67
2023/02/18 02:04:22;;;;;;;;;;;;;;;13.72;44.95;100824.56;4919972;28;118432;-66
2023/02/18 02:06:47;;;;;;;;;;;;;;;13.73;45.16;100833.50;4930126;28;126824;-66
2023/02/18 02:09:15;;;;;;;;;;;;;;;13.69;45.11;100827.81;4917164;28;120738;-67
2023/02/18 02:12:06;;;;;;;;;;;;;;;13.69;44.81;100844.09;4915413;28;98496;-67
2023/02/18 02:14:31;;;;;;;;;;;;;;;13.67;44.83;100840.03;4900352;28;98617;-66
2023/02/18 02:17:13;;;;;;;;;;;;;;;13.68;45.12;100847.09;4895907;28;98339;-66
2023/02/18 02:20:17;;;;;;;;;;;;;;;13.64;44.86;100836.00;4880419;28;98109;-66
2023/02/18 02:22:46;;;;;;;;;;;;;;;13.63;45.07;100841.66;4895256;28;98742;-66
2023/02/18 02:25:23;;;;;;;;;;;;;;;13.62;44.92;100840.88;4897014;28;97876;-67
2023/02/18 02:28:16;;;;;;;;;;;;;;;13.61;44.64;100841.16;4891585;28;98823;-66
2023/02/18 02:31:05;;;;;;;;;;;;;;;13.60;44.72;100829.50;4892338;28;110977;-66
2023/02/18 02:33:54;;;;;;;;;;;;;;;13.59;44.85;100832.47;4909926;28;110250;-66
2023/02/18 02:36:53;;;;;;;;;;;;;;;13.57;44.77;100843.59;4911443;28;98298;-66
2023/02/18 02:39:25;;;;;;;;;;;;;;;13.55;44.78;100836.84;4892108;28;100047;-66
2023/02/18 02:42:29;;;;;;;;;;;;;;;13.55;45.12;100836.84;4898735;28;108001;-66
2023/02/18 02:45:01;;;;;;;;;;;;;;;13.54;44.80;100836.03;4900056;28;98332;-67
2023/02/18 02:47:36;;;;;;;;;;;;;;;13.53;44.97;100833.59;4882654;28;98338;-66
2023/02/18 02:50:12;;;;;;;;;;;;;;;13.53;44.83;100845.25;4893987;28;115693;-66
2023/02/18 02:52:43;;;;;;;;;;;;;;;13.54;44.60;100843.34;4897773;28;100062;-66
2023/02/18 02:55:09;;;;;;;;;;;;;;;13.54;44.65;100835.22;4882492;28;99002;-66
2023/02/18 02:57:50;;;;;;;;;;;;;;;13.53;44.76;100842.53;4887608;28;98140;-66
2023/02/18 03:00:17;;;;;;;;;;;;;;;13.53;44.89;100837.13;4878727;28;99544;-65
2023/02/18 03:03:02;;;;;;;;;;;;;;;13.54;45.08;100827.91;4865687;28;107570;-67
2023/02/18 03:05:56;;;;;;;;;;;;;;;13.54;44.83;100830.59;4897251;28;100174;-66
2023/02/18 03:08:40;;;;;;;;;;;;;;;13.55;44.77;100820.59;4889548;28;101855;-66
2023/02/18 03:11:08;;;;;;;;;;;;;;;13.54;44.83;100825.19;4857984;28;115811;-67
2023/02/18 03:13:41;;;;;;;;;;;;;;;13.54;44.70;100827.91;4921209;28;98113;-67
2023/02/18 03:16:31;;;;;;;;;;;;;;;13.54;44.64;100833.31;4915665;28;99522;-66
2023/02/18 03:19:05;;;;;;;;;;;;;;;13.54;44.87;100824.38;4895787;28;130637;-66
2023/02/18 03:21:39;;;;;;;;;;;;;;;13.54;44.78;100817.06;4911033;28;100067;-66
2023/02/18 03:24:16;;;;;;;;;;;;;;;13.55;44.62;100831.41;4934881;28;98292;-66
2023/02/18 03:26:46;;;;;;;;;;;;;;;13.53;44.84;100823.59;4928685;28;98206;-66
2023/02/18 03:29:12;;;;;;;;;;;;;;;13.55;44.87;100834.13;4899768;28;119713;-67
2023/02/18 03:31:37;;;;;;;;;;;;;;;13.55;44.61;100834.94;4916831;28;125659;-67
2023/02/18 03:34:09;;;;;;;;;;;;;;;13.57;45.05;100826.53;4915162;28;122591;-66
2023/02/18 03:36:35;;;;;;;;;;;;;;;13.56;44.96;100827.63;4911996;28;99645;-67
2023/02/18 03:39:04;;;;;;;;;;;;;;;13.57;44.93;100832.78;4930108;28;103249;-66
2023/02/18 03:41:30;;;;;;;;;;;;;;;13.57;45.05;100824.66;4910861;28;98120;-66
2023/02/18 03:44:00;;;;;;;;;;;;;;;13.58;45.01;100822.75;4919973;28;122678;-67
2023/02/18 03:46:27;;;;;;;;;;;;;;;13.58;44.59;100825.44;4918934;28;98099;-66
2023/02/18 03:48:53;;;;;;;;;;;;;;;13.59;44.68;100829.78;4886212;28;104457;-67
2023/02/18 03:51:19;;;;;;;;;;;;;;;13.59;44.60;100827.88;4901920;28;127614;-66
2023/02/18 03:53:45;;;;;;;;;;;;;;;13.58;44.77;100818.13;4919186;28;108554;-67
2023/02/18 03:56:11;;;;;;;;;;;;;;;13.60;44.78;100824.09;4919718;28;128525;-67
2023/02/18 03:58:37;;;;;;;;;;;;;;;13.60;44.99;100834.13;4919194;28;109211;-67
2023/02/18 04:01:03;;;;;;;;;;;;;;;13.60;44.63;100823.28;4933784;28;127128;-66
2023/02/18 04:03:29;;;;;;;;;;;;;;;13.61;44.93;100838.44;4903738;28;109998;-67
2023/02/18 04:05:55;;;;;;;;;;;;;;;13.60;45.03;100826.81;4919193;28;113261;-66
2023/02/18 04:08:21;;;;;;;;;;;;;;;13.61;44.94;100827.59;4922446;28;125156;-67
2023/02/18 04:10:47;;;;;;;;;;;;;;;13.62;44.88;100829.22;4932554;28;127406;-66
2023/02/18 04:13:13;;;;;;;;;;;;;;;13.61;44.59;100836.53;4900655;28;116518;-67
2023/02/18 04:15:38;;;;;;;;;;;;;;;13.63;44.57;100830.84;4917194;28;128303;-67
2023/02/18 04:18:04;;;;;;;;;;;;;;;13.61;44.75;100831.13;4935868;28;127815;-66
2023/02/18 04:20:30;;;;;;;;;;;;;;;13.63;44.91;100828.94;4902620;28;128438;-66
2023/02/18 04:22:56;;;;;;;;;;;;;;;13.64;44.64;100837.91;4916058;28;110121;-66
2023/02/18 04:25:22;;;;;;;;;;;;;;;13.63;44.58;100834.34;4933967;28;99311;-66
2023/02/18 04:27:48;;;;;;;;;;;;;;;13.68;44.98;100839.75;4919261;28;125427;-66
2023/02/18 04:30:14;;;;;;;;;;;;;;;13.75;44.64;100844.84;4920950;28;98160;-66
2023/02/18 04:32:40;;;;;;;;;;;;;;;13.83;44.62;100843.47;4905898;28;98138;-66
2023/02/18 04:35:06;;;;;;;;;;;;;;;13.90;44.74;100846.69;4918006;28;98655;-67
2023/02/18 04:37:32;;;;;;;;;;;;;;;13.95;44.82;100846.63;4917412;28;99598;-66
2023/02/18 04:39:58;;;;;;;;;;;;;;;13.99;44.83;100845.81;4934325;28;127158;-66
2023/02/18 04:42:24;;;;;;;;;;;;;;;14.03;44.97;100848.78;4906735;28;115471;-66
2023/02/18 04:44:50;;;;;;;;;;;;;;;14.07;44.61;100854.41;4904953;28;110429;-67
2023/02/18 04:47:16;;;;;;;;;;;;;;;14.10;44.98;100840.31;4901496;28;128491;-67
2023/02/18 04:49:42;;;;;;;;;;;;;;;14.11;44.85;100853.59;4932082;28;128024;-67
2023/02/18 04:52:08;;;;;;;;;;;;;;;14.14;44.61;100844.06;4921667;28;98079;-67
2023/02/18 04:54:34;;;;;;;;;;;;;;;14.15;44.93;100843.81;4902073;28;126011;-67
2023/02/18 04:57:00;;;;;;;;;;;;;;;14.17;44.87;100840.81;4902047;28;126169;-67
2023/02/18 04:59:25;;;;;;;;;;;;;;;14.18;44.93;100837.00;4883945;28;128147;-67
2023/02/18 05:01:51;;;;;;;;;;;;;;;14.19;44.65;100836.75;4898995;28;122267;-67
2023/02/18 05:04:17;;;;;;;;;;;;;;;14.20;44.66;100835.63;4933004;28;101110;-68
2023/02/18 05:06:43;;;;;;;;;;;;;;;14.21;44.78;100823.69;4931700;28;130222;-68
2023/02/18 05:09:10;;;;;;;;;;;;;;;14.21;44.99;100823.69;4901314;28;129872;-68
2023/02/18 05:11:36;;;;;;;;;;;;;;;14.22;44.80;100828.00;4902727;28;99005;-68
2023/02/18 05:14:02;;;;;;;;;;;;;;;14.22;44.77;100819.88;4898168;28;100043;-66
2023/02/18 05:16:28;;;;;;;;;;;;;;;14.24;44.86;100828.56;4883284;28;125892;-67
2023/02/18 05:18:54;;;;;;;;;;;;;;;14.23;44.61;100824.22;4880566;28;127284;-66
2023/02/18 05:21:20;;;;;;;;;;;;;;;14.23;44.72;100818.81;4881752;28;123142;-66
2023/02/18 05:23:45;;;;;;;;;;;;;;;14.23;44.98;100816.09;4885530;28;99979;-67
2023/02/18 05:26:11;;;;;;;;;;;;;;;14.24;44.90;100820.41;4859366;28;127671;-67
2023/02/18 05:28:37;;;;;;;;;;;;;;;14.24;45.05;100814.19;4893587;28;126643;-67
2023/02/18 05:31:03;;;;;;;;;;;;;;;14.23;45.00;100813.38;4896908;28;122536;-67
2023/02/18 05:33:29;;;;;;;;;;;;;;;14.23;44.64;100809.88;4878368;28;117970;-67
2023/02/18 05:35:55;;;;;;;;;;;;;;;14.24;44.72;100814.19;4897269;28;128575;-66
2023/02/18 05:38:21;;;;;;;;;;;;;;;14.25;44.54;100804.97;4878315;28;134479;-67
2023/02/18 05:40:47;;;;;;;;;;;;;;;14.24;44.64;100793.31;4866084;28;119507;-67
2023/02/18 05:43:13;;;;;;;;;;;;;;;14.24;44.63;100806.88;4881006;28;128129;-67
2023/02/18 05:45:39;;;;;;;;;;;;;;;14.23;44.94;100813.38;4912508;28;124295;-67
2023/02/18 05:48:05;;;;;;;;;;;;;;;14.24;44.61;100816.91;4910938;28;123523;-67
2023/02/18 05:50:31;;;;;;;;;;;;;;;14.24;44.76;100800.63;4868288;28;122648;-66
2023/02/18 05:52:56;;;;;;;;;;;;;;;14.24;44.61;100797.94;4866758;28;111416;-67
2023/02/18 05:55:23;;;;;;;;;;;;;;;14.24;44.72;100797.94;4895342;28;127072;-66
2023/02/18 05:57:49;;;;;;;;;;;;;;;14.24;44.67;100797.94;4892312;28;99002;-66
2023/02/18 06:00:15;;;;;;;;;;;;;;;14.24;44.89;100797.94;4897111;28;97984;-67
2023/02/18 06:02:41;;;;;;;;;;;;;;;14.24;44.53;100804.16;4879492;28;107014;-66
2023/02/18 06:05:07;;;;;;;;;;;;;;;14.24;44.92;100793.31;4893239;28;98491;-67
2023/02/18 06:07:33;;;;;;;;;;;;;;;14.25;44.85;100805.75;4892453;28;98429;-67
2023/02/18 06:09:59;;;;;;;;;;;;;;;14.24;44.92;100806.88;4878547;28;98267;-67
2023/02/18 06:12:25;;;;;;;;;;;;;;;14.25;44.59;100808.47;4893602;28;128289;-67
2023/02/18 06:14:51;;;;;;;;;;;;;;;14.26;44.98;100798.44;4913682;28;99811;-67
2023/02/18 06:17:17;;;;;;;;;;;;;;;14.26;44.96;100801.16;4930516;28;127881;-67
2023/02/18 06:19:44;;;;;;;;;;;;;;;14.28;44.67;100804.41;4926465;28;97978;-66
2023/02/18 06:22:10;;;;;;;;;;;;;;;14.29;44.90;100805.19;4915887;28;99949;-67
2023/02/18 06:24:36;;;;;;;;;;;;;;;14.29;44.65;100805.19;4897374;28;116396;-67
2023/02/18 06:27:02;;;;;;;;;;;;;;;14.29;44.82;100803.31;4896820;28;104974;-66
2023/02/18 06:29:30;;;;;;;;;;;;;;;14.31;44.80;100811.16;4899602;28;98150;-66
2023/02/18 06:31:58;;;;;;;;;;;;;;;14.32;44.48;100810.88;4881549;28;99042;-68
2023/02/18 06:34:25;;;;;;;;;;;;;;;14.33;44.62;100801.63;4931489;28;98563;-66
2023/02/18 06:36:51;;;;;;;;;;;;;;;14.34;44.84;100816.81;4900363;28;99471;-67
2023/02/18 06:39:17;;;;;;;;;;;;;;;14.35;44.49;100810.31;4891197;28;110333;-66
2023/02/18 06:41:43;;;;;;;;;;;;;;;14.34;44.44;100814.09;4912614;28;108764;-67
2023/02/18 06:44:10;;;;;;;;;;;;;;;14.35;44.57;100807.59;4943743;28;127775;-67
2023/02/18 06:46:36;;;;;;;;;;;;;;;14.35;44.55;100812.22;4916209;28;98137;-67
2023/02/18 06:49:02;;;;;;;;;;;;;;;14.35;44.69;100815.72;4913392;28;106078;-67
2023/02/18 06:51:28;;;;;;;;;;;;;;;14.35;44.75;100814.94;4900027;28;117753;-67
2023/02/18 06:53:54;;;;;;;;;;;;;;;14.35;44.76;100809.50;4877836;28;108006;-66
2023/02/18 06:56:20;;;;;;;;;;;;;;;14.35;44.67;100798.66;4896468;28;128494;-67
2023/02/18 06:58:45;;;;;;;;;;;;;;;14.36;44.59;100797.56;4913386;28;123268;-67
2023/02/18 07:01:11;;;;;;;;;;;;;;;14.37;44.76;100796.47;4911716;28;128412;-66
2023/02/18 07:03:37;;;;;;;;;;;;;;;14.37;44.42;100797.25;4914228;28;129217;-67
2023/02/18 07:06:03;;;;;;;;;;;;;;;14.38;44.49;100800.78;4911691;28;127612;-65
2023/02/18 07:08:31;;;;;;;;;;;;;;;14.39;44.65;100797.81;4897537;28;109328;-65
2023/02/18 07:10:57;;;;;;;;;;;;;;;14.39;44.52;100792.38;4901835;28;98328;-66
2023/02/18 07:13:23;;;;;;;;;;;;;;;14.41;44.74;100792.09;4895891;28;129723;-66
2023/02/18 07:15:49;;;;;;;;;;;;;;;14.42;44.75;100794.53;4914264;28;106947;-67
2023/02/18 07:18:15;;;;;;;;;;;;;;;14.44;44.46;100788.81;4893985;28;120742;-65
2023/02/18 07:20:41;;;;;;;;;;;;;;;14.45;44.54;100780.38;4893495;28;99429;-65
2023/02/18 07:23:07;;;;;;;;;;;;;;;14.47;44.70;100782.81;4893459;28;128421;-66
2023/02/18 07:25:33;;;;;;;;;;;;;;;14.47;44.75;100767.34;4880246;28;127531;-67
2023/02/18 07:27:59;;;;;;;;;;;;;;;14.48;44.39;100768.97;4914514;28;98183;-66
2023/02/18 07:30:25;;;;;;;;;;;;;;;14.49;44.33;100767.88;4928461;28;128164;-66
2023/02/18 07:32:51;;;;;;;;;;;;;;;14.52;44.45;100752.16;4915599;28;127322;-66
2023/02/18 07:35:17;;;;;;;;;;;;;;;14.54;44.19;100752.66;4897338;28;127990;-66
2023/02/18 07:37:46;;;;;;;;;;;;;;;14.54;44.74;100747.22;4930211;28;98360;-65
2023/02/18 07:40:14;;;;;;;;;;;;;;;14.53;44.36;100746.44;4908882;28;99155;-66
2023/02/18 07:42:40;;;;;;;;;;;;;;;14.54;44.50;100739.09;4896854;28;99254;-66
2023/02/18 07:45:06;;;;;;;;;;;;;;;14.55;44.77;100740.72;4911536;28;127301;-65
2023/02/18 07:47:32;;;;;;;;;;;;;;;14.56;44.57;100740.44;4896571;28;119735;-66
2023/02/18 07:49:58;;;;;;;;;;;;;;;14.57;44.43;100739.34;4881589;28;99967;-65
2023/02/18 07:52:24;;;;;;;;;;;;;;;14.58;44.67;100724.69;4911181;28;98514;-67
2023/02/18 07:54:50;;;;;;;;;;;;;;;14.62;44.38;100730.31;4892768;28;117899;-66
2023/02/18 07:57:16;;;;;;;;;;;;;;;14.64;44.72;100730.88;4892876;28;121042;-66
2023/02/18 07:59:42;;;;;;;;;;;;;;;14.65;44.41;100736.00;4891564;28;130599;-66
2023/02/18 08:02:17;;;;;;;;;;;;;;;14.67;44.55;100731.09;4894040;28;118596;-65
2023/02/18 08:04:43;;;;;;;;;;;;;;;14.71;44.65;100731.34;4897438;28;98102;-65
2023/02/18 08:07:13;;;;;;;;;;;;;;;14.72;44.44;100722.91;4894579;28;119946;-65
2023/02/18 08:09:38;;;;;;;;;;;;;;;14.76;44.28;100716.91;4910654;28;98389;-65
2023/02/18 08:12:04;;;;;;;;;;;;;;;14.79;44.54;100716.31;4908834;28;128307;-65
2023/02/18 08:14:31;;;;;;;;;;;;;;;14.82;44.30;100711.13;4892043;28;115490;-65
2023/02/18 08:16:56;;;;;;;;;;;;;;;14.84;44.61;100710.81;4878103;28;98363;-66
2023/02/18 08:19:22;;;;;;;;;;;;;;;14.84;44.31;100703.50;4895790;28;128734;-65
2023/02/18 08:21:48;;;;;;;;;;;;;;;14.81;44.38;100690.50;4896985;28;127692;-66
2023/02/18 08:24:14;;;;;;;;;;;;;;;14.82;44.36;100691.34;4898521;28;126633;-65
2023/02/18 08:26:40;;;;;;;;;;;;;;;14.84;44.42;100683.69;4879062;28;125729;-65
2023/02/18 08:29:06;;;;;;;;;;;;;;;14.87;44.64;100680.41;4914986;28;127903;-66
2023/02/18 08:31:32;;;;;;;;;;;;;;;14.86;44.68;100671.47;4912214;28;98475;-66
2023/02/18 08:33:59;;;;;;;;;;;;;;;14.85;44.56;100667.09;4895625;28;124281;-65
2023/02/18 08:36:25;;;;;;;;;;;;;;;14.85;44.44;100667.09;4915847;28;97977;-65
2023/02/18 08:38:51;;;;;;;;;;;;;;;14.87;44.38;100664.13;4908993;28;98122;-66
2023/02/18 08:41:17;;;;;;;;;;;;;;;14.87;44.73;100664.94;4895990;28;124673;-65
2023/02/18 08:43:43;;;;;;;;;;;;;;;14.88;44.34;100660.31;4895164;28;97894;-65
2023/02/18 08:46:09;;;;;;;;;;;;;;;14.88;44.44;100658.38;4900049;28;122239;-65
2023/02/18 08:48:35;;;;;;;;;;;;;;;14.88;44.52;100650.25;4915561;28;117937;-67
2023/02/18 08:51:11;;;;;;;;;;;;;;;14.88;44.50;100652.16;4911083;28;98162;-66
2023/02/18 08:53:37;;;;;;;;;;;;;;;14.88;44.55;100647.53;4914386;28;98126;-67
2023/02/18 08:56:06;;;;;;;;;;;;;;;14.87;44.56;100653.25;4921465;28;98177;-68
2023/02/18 08:58:35;;;;;;;;;;;;;;;14.87;44.55;100642.41;4901485;28;105423;-66
2023/02/18 09:01:05;;;;;;;;;;;;;;;14.88;44.29;100638.59;4919880;28;98562;-66
2023/02/18 09:03:31;;;;;;;;;;;;;;;14.86;44.76;100636.19;4948767;28;99961;-65
2023/02/18 09:05:57;;;;;;;;;;;;;;;14.85;44.46;100637.25;4948666;28;98475;-66
2023/02/18 09:08:23;;;;;;;;;;;;;;;14.83;44.53;100631.34;4901729;28;98125;-66
2023/02/18 09:10:49;;;;;;;;;;;;;;;14.83;44.63;100628.63;4930949;28;127834;-66
2023/02/18 09:13:15;;;;;;;;;;;;;;;14.82;44.56;100618.88;4946368;28;127159;-66
2023/02/18 09:15:41;;;;;;;;;;;;;;;14.84;44.52;100611.22;4950606;28;121525;-65
2023/02/18 09:18:07;;;;;;;;;;;;;;;14.84;44.81;100600.38;4931585;28;128211;-66
2023/02/18 09:20:33;;;;;;;;;;;;;;;14.86;44.50;100600.09;4912616;28;128654;-66
2023/02/18 09:23:00;;;;;;;;;;;;;;;14.85;44.74;100595.75;4932990;28;99613;-66
2023/02/18 09:25:26;;;;;;;;;;;;;;;14.85;44.49;100598.47;4934000;28;98575;-67
2023/02/18 09:27:52;;;;;;;;;;;;;;;14.87;44.53;100593.56;4917149;28;130702;-66
2023/02/18 09:30:18;;;;;;;;;;;;;;;14.89;44.51;100580.50;4929816;28;127436;-65
2023/02/18 09:32:44;;;;;;;;;;;;;;;14.89;44.66;100575.06;4916401;28;122956;-65
2023/02/18 09:35:10;;;;;;;;;;;;;;;14.91;44.64;100564.75;4929391;28;122412;-65
2023/02/18 09:37:37;;;;;;;;;;;;;;;14.93;44.49;100565.25;4933775;28;128898;-66
2023/02/18 09:40:03;;;;;;;;;;;;;;;14.93;44.45;100548.94;4933459;28;99311;-66
2023/02/18 09:42:31;;;;;;;;;;;;;;;14.93;44.82;100538.94;4934123;28;119200;-66
2023/02/18 09:44:59;;;;;;;;;;;;;;;14.95;44.67;100536.72;4931559;28;98056;-67
2023/02/18 09:47:38;;;;;;;;;;;;;;;14.95;44.50;100525.84;4916129;28;120501;-66
2023/02/18 09:50:08;;;;;;;;;;;;;;;14.98;44.46;100528.00;4934129;28;99042;-66
2023/02/18 09:52:37;;;;;;;;;;;;;;;15.01;44.63;100521.13;4949187;28;98153;-69
2023/02/18 09:55:20;;;;;;;;;;;;;;;15.00;44.51;100514.09;4917455;28;99408;-66
2023/02/18 09:57:54;;;;;;;;;;;;;;;14.97;44.52;100515.53;4935901;28;98080;-66
2023/02/18 10:00:30;;;;;;;;;;;;;;;14.95;44.50;100506.84;4934032;28;115473;-67
2023/02/18 10:02:57;;;;;;;;;;;;;;;14.97;44.47;100506.56;4925612;28;110448;-67
2023/02/18 10:05:25;;;;;;;;;;;;;;;15.00;44.54;100505.16;4931260;28;99689;-66
2023/02/18 10:07:53;;;;;;;;;;;;;;;15.01;44.56;100487.78;4933279;28;126079;-66
2023/02/18 10:10:37;;;;;;;;;;;;;;;15.01;44.48;100480.44;4917278;28;98407;-65
2023/02/18 10:13:03;;;;;;;;;;;;;;;15.03;44.77;100482.88;4948893;28;97977;-65
2023/02/18 10:15:30;;;;;;;;;;;;;;;15.02;44.65;100479.34;4917972;28;120671;-65
2023/02/18 10:17:57;;;;;;;;;;;;;;;15.03;44.61;100469.28;4933875;28;98164;-66
2023/02/18 10:20:25;;;;;;;;;;;;;;;15.02;44.71;100460.34;4931540;28;98426;-66
2023/02/18 10:22:53;;;;;;;;;;;;;;;15.03;44.53;100458.44;4950378;28;98316;-65
2023/02/18 10:25:20;;;;;;;;;;;;;;;15.03;44.47;100455.72;4926845;28;98583;-66
2023/02/18 10:27:46;;;;;;;;;;;;;;;15.05;44.60;100451.63;4915669;28;99167;-65
2023/02/18 10:30:23;;;;;;;;;;;;;;;15.07;44.73;100454.81;4931476;28;113386;-67
2023/02/18 10:32:50;;;;;;;;;;;;;;;15.11;44.56;100439.56;4950522;28;98551;-67
2023/02/18 10:35:52;;;;;;;;;;;;;;;15.17;44.46;100437.56;4920585;28;98521;-65
2023/02/18 10:38:48;;;;;;;;;;;;;;;15.18;44.43;100428.31;4875923;28;114469;-66
2023/02/18 10:41:35;;;;;;;;;;;;;;;15.20;44.49;100401.66;4918094;28;117825;-67
2023/02/18 10:44:13;;;;;;;;;;;;;;;15.27;44.63;100407.50;4917066;28;98940;-67
2023/02/18 10:47:06;;;;;;;;;;;;;;;15.34;44.17;100398.97;4944465;28;108146;-67
2023/02/18 10:49:50;;;;;;;;;;;;;;;15.40;44.48;100393.13;4932525;28;124695;-66
2023/02/18 10:52:17;;;;;;;;;;;;;;;15.45;44.48;100392.25;4931782;28;98499;-67
2023/02/18 10:54:59;;;;;;;;;;;;;;;15.46;44.39;100382.97;4930108;28;121655;-66
2023/02/18 10:57:25;;;;;;;;;;;;;;;15.50;44.24;100373.13;4946893;28;98281;-66
2023/02/18 11:00:01;;;;;;;;;;;;;;;15.49;44.47;100368.00;4934462;28;98056;-67
2023/02/18 11:02:31;;;;;;;;;;;;;;;15.50;44.40;100347.88;4931014;28;98623;-66
2023/02/18 11:04:58;;;;;;;;;;;;;;;15.55;44.48;100331.47;4913719;28;98106;-66
2023/02/18 11:07:34;;;;;;;;;;;;;;;15.65;44.41;100334.00;4950116;28;98338;-66
2023/02/18 11:10:29;;;;;;;;;;;;;;;15.67;44.40;100313.56;4948563;28;98612;-66
2023/02/18 11:13:04;;;;;;;;;;;;;;;15.67;44.22;100313.56;4928035;28;121128;-66
2023/02/18 11:15:30;;;;;;;;;;;;;;;15.65;44.41;100313.06;4933545;28;114230;-66
2023/02/18 11:17:58;;;;;;;;;;;;;;;15.64;44.61;100302.47;4933425;28;116922;-66
2023/02/18 11:20:35;;;;;;;;;;;;;;;15.64;44.59;100297.03;4934074;28;99836;-66
2023/02/18 11:23:14;;;;;;;;;;;;;;;15.63;44.45;100298.94;4931159;28;98521;-66
2023/02/18 11:25:40;;;;;;;;;;;;;;;15.59;44.69;100297.16;4917044;28;116292;-66
2023/02/18 11:28:30;;;;;;;;;;;;;;;15.56;44.50;100282.28;4927089;28;120989;-66
2023/02/18 11:30:58;;;;;;;;;;;;;;;15.55;44.75;100279.84;4931499;28;100334;-67
2023/02/18 11:33:38;;;;;;;;;;;;;;;15.55;44.58;100275.22;4915794;28;98463;-66
2023/02/18 11:36:16;;;;;;;;;;;;;;;15.54;44.49;100275.53;4895612;28;98055;-68
2023/02/18 11:38:52;;;;;;;;;;;;;;;15.52;44.80;100266.88;4934055;28;101063;-66
2023/02/18 11:41:21;;;;;;;;;;;;;;;15.50;44.84;100252.81;4911499;28;124889;-67
2023/02/18 11:43:48;;;;;;;;;;;;;;;15.49;44.77;100249.28;4915699;28;99897;-66
2023/02/18 11:46:25;;;;;;;;;;;;;;;15.54;44.72;100241.03;4915764;28;99131;-67
2023/02/18 11:48:51;;;;;;;;;;;;;;;15.59;44.84;100237.38;4912626;28;98572;-66
2023/02/18 11:51:22;;;;;;;;;;;;;;;15.62;44.68;100240.28;4917337;28;114429;-67
2023/02/18 11:54:16;;;;;;;;;;;;;;;15.64;44.68;100223.69;4931696;28;99457;-67
2023/02/18 11:56:42;;;;;;;;;;;;;;;15.69;44.41;100216.25;4919149;28;120276;-67
2023/02/18 11:59:08;;;;;;;;;;;;;;;15.72;44.49;100209.41;4928597;28;122004;-67
2023/02/18 12:01:45;;;;;;;;;;;;;;;15.69;44.50;100199.16;4897065;28;127969;-67
2023/02/18 12:04:19;;;;;;;;;;;;;;;15.66;44.90;100188.91;4933444;28;98210;-67
2023/02/18 12:07:12;;;;;;;;;;;;;;;15.65;44.69;100184.59;4933736;28;98769;-67
2023/02/18 12:09:42;;;;;;;;;;;;;;;15.63;44.58;100190.28;4935845;28;99365;-67
2023/02/18 12:12:14;;;;;;;;;;;;;;;15.62;44.70;100179.72;4934004;28;121689;-67
2023/02/18 12:14:40;;;;;;;;;;;;;;;15.60;44.63;100187.38;4935363;28;106820;-66
2023/02/18 12:17:40;;;;;;;;;;;;;;;15.57;44.78;100180.66;4917836;28;102189;-66
2023/02/18 12:20:18;;;;;;;;;;;;;;;15.58;44.72;100189.59;4935400;28;98892;-66
2023/02/18 12:23:02;;;;;;;;;;;;;;;15.58;44.55;100173.31;4918358;28;120225;-66
2023/02/18 12:25:43;;;;;;;;;;;;;;;15.56;44.81;100184.50;4919162;28;121167;-67
2023/02/18 12:28:30;;;;;;;;;;;;;;;15.58;44.85;100167.88;4935186;28;99059;-67
2023/02/18 12:31:29;;;;;;;;;;;;;;;15.60;44.64;100176.50;4934655;28;120627;-66
2023/02/18 12:34:14;;;;;;;;;;;;;;;15.65;44.68;100169.06;4950418;28;99389;-66
2023/02/18 12:37:01;;;;;;;;;;;;;;;15.69;44.55;100182.84;4947121;28;103351;-66
2023/02/18 12:40:04;;;;;;;;;;;;;;;15.69;44.48;100171.97;4932425;28;98851;-66
2023/02/18 12:42:41;;;;;;;;;;;;;;;15.69;44.55;100158.41;4945324;28;98278;-67
2023/02/18 12:45:39;;;;;;;;;;;;;;;15.70;44.62;100168.94;4951281;28;99702;-67